Time;durP1;ratioP1;P1;durP2;ratioP2;P2;SDS_P1;SDS_P2;PMS_P1;PMS_P2;Temp;Humidity;BMP_temperature;BMP_pressure;BME280_temperature;BME280_humidity;BME280_pressure;Samples;Min_cycle;Max_cycle;Signal;HPM_P1;HPM_P2
2022/07/05 00:02:07;;;;;;;52.43;49.73;;;16.30;99.90;;;;;;5053253;28;20685;-75
2022/07/05 00:04:34;;;;;;;52.93;50.23;;;16.30;99.90;;;;;;5053338;28;20728;-75
2022/07/05 00:07:18;;;;;;;119.77;113.43;;;16.30;99.90;;;;;;5052508;28;20316;-76
2022/07/05 00:09:52;;;;;;;164.70;155.87;;;16.30;99.90;;;;;;5034934;28;20193;-76
2022/07/05 00:12:20;;;;;;;273.13;258.23;;;16.40;99.90;;;;;;5035518;28;20214;-75
2022/07/05 00:14:46;;;;;;;220.27;208.37;;;16.30;99.90;;;;;;5053540;28;20660;-74
2022/07/05 00:17:12;;;;;;;292.00;275.43;;;16.20;99.90;;;;;;5052511;28;20268;-74
2022/07/05 00:19:39;;;;;;;311.20;294.20;;;16.10;99.90;;;;;;5052501;28;20174;-74
2022/07/05 00:22:05;;;;;;;333.17;314.67;;;16.00;99.90;;;;;;5051054;28;20734;-74
2022/07/05 00:24:31;;;;;;;256.57;243.07;;;16.00;99.90;;;;;;5052738;28;20178;-75
2022/07/05 00:26:57;;;;;;;163.53;154.90;;;15.90;99.90;;;;;;5051908;28;20244;-74
2022/07/05 00:29:23;;;;;;;213.10;201.97;;;15.80;99.90;;;;;;5052526;28;20549;-74
2022/07/05 00:31:48;;;;;;;152.30;144.60;;;15.80;99.90;;;;;;5052102;28;20206;-74
2022/07/05 00:34:14;;;;;;;82.83;78.43;;;15.70;99.90;;;;;;5052237;28;20243;-74
2022/07/05 00:36:40;;;;;;;63.97;60.67;;;15.70;99.90;;;;;;5051064;28;20214;-74
2022/07/05 00:39:07;;;;;;;65.33;61.80;;;15.70;99.90;;;;;;5051826;28;20181;-73
2022/07/05 00:41:33;;;;;;;68.57;64.97;;;15.60;99.90;;;;;;5052263;28;20236;-76
2022/07/05 00:44:02;;;;;;;36.40;34.47;;;15.50;99.90;;;;;;5035102;28;20186;-74
2022/07/05 00:46:28;;;;;;;16.90;15.80;;;15.50;99.90;;;;;;5052647;28;20602;-74
2022/07/05 00:48:55;;;;;;;20.27;19.27;;;15.50;99.90;;;;;;5051477;28;20183;-73
2022/07/05 00:51:21;;;;;;;18.23;17.13;;;15.60;99.90;;;;;;5051930;28;20229;-73
2022/07/05 00:53:49;;;;;;;19.30;18.23;;;15.60;99.90;;;;;;5050999;28;20202;-74
2022/07/05 00:56:15;;;;;;;26.83;25.40;;;15.60;99.90;;;;;;5052039;28;20213;-74
2022/07/05 00:58:40;;;;;;;21.73;20.57;;;15.60;99.90;;;;;;5050118;28;20182;-73
2022/07/05 01:01:08;;;;;;;19.67;18.67;;;15.60;99.90;;;;;;5051775;28;20194;-73
2022/07/05 01:03:35;;;;;;;19.07;17.93;;;15.50;99.90;;;;;;5051694;28;20190;-73
2022/07/05 01:06:02;;;;;;;21.03;19.83;;;15.40;99.90;;;;;;5052007;28;20184;-74
2022/07/05 01:08:28;;;;;;;18.23;17.33;;;15.30;99.90;;;;;;5051069;28;20182;-73
2022/07/05 01:10:57;;;;;;;17.20;15.83;;;15.30;99.90;;;;;;5040028;28;20202;-74
2022/07/05 01:13:25;;;;;;;20.63;19.60;;;15.30;99.90;;;;;;5050793;28;20178;-73
2022/07/05 01:15:51;;;;;;;9.60;9.00;;;15.20;99.90;;;;;;5051955;28;20187;-73
2022/07/05 01:18:20;;;;;;;24.47;23.13;;;15.20;99.90;;;;;;5049567;28;20181;-74
2022/07/05 01:20:48;;;;;;;22.13;20.63;;;15.10;99.90;;;;;;5044756;28;20214;-73
2022/07/05 01:23:14;;;;;;;28.67;27.27;;;15.00;99.90;;;;;;5051447;28;20183;-73
2022/07/05 01:25:41;;;;;;;28.43;26.87;;;15.00;99.90;;;;;;5033918;28;20218;-73
2022/07/05 01:28:07;;;;;;;22.10;21.07;;;15.00;99.90;;;;;;5050772;28;20213;-73
2022/07/05 01:30:35;;;;;;;23.97;22.73;;;15.00;99.90;;;;;;5050910;28;20271;-73
2022/07/05 01:33:02;;;;;;;27.90;26.43;;;15.00;99.90;;;;;;5033772;28;20236;-73
2022/07/05 01:35:27;;;;;;;23.07;21.67;;;15.00;99.90;;;;;;5050272;28;20182;-73
2022/07/05 01:37:53;;;;;;;20.60;19.50;;;15.00;99.90;;;;;;5050355;28;20284;-73
2022/07/05 01:40:20;;;;;;;20.33;19.10;;;15.00;99.90;;;;;;5032812;28;20183;-73
2022/07/05 01:42:47;;;;;;;19.80;18.70;;;14.90;99.90;;;;;;5050093;28;20224;-73
2022/07/05 01:45:38;;;;;;;18.60;17.67;;;14.70;99.90;;;;;;5051515;28;20182;-74
2022/07/05 01:48:00;;;;;;;11.37;10.67;;;14.70;99.90;;;;;;5050457;28;20239;-74
2022/07/05 01:50:31;;;;;;;9.20;8.63;;;14.80;99.90;;;;;;5049465;28;20507;-73
2022/07/05 01:52:58;;;;;;;8.47;7.97;;;14.80;99.90;;;;;;5033456;28;20270;-74
2022/07/05 01:55:24;;;;;;;10.17;9.37;;;14.90;99.90;;;;;;5051656;28;20552;-75
2022/07/05 01:57:51;;;;;;;10.90;10.27;;;14.90;99.90;;;;;;5050628;28;20218;-74
2022/07/05 02:00:17;;;;;;;10.63;9.80;;;14.80;99.90;;;;;;5033132;28;20202;-73
2022/07/05 02:02:44;;;;;;;11.53;10.83;;;14.90;99.90;;;;;;5050924;28;20669;-74
2022/07/05 02:05:10;;;;;;;9.63;8.93;;;14.90;99.90;;;;;;5051066;28;20249;-73
2022/07/05 02:07:36;;;;;;;8.87;8.40;;;14.80;99.90;;;;;;5048848;28;20204;-74
2022/07/05 02:10:02;;;;;;;10.37;9.70;;;14.80;99.90;;;;;;5050601;28;20179;-74
2022/07/05 02:12:28;;;;;;;8.47;7.77;;;14.70;99.90;;;;;;5032910;28;20598;-74
2022/07/05 02:14:53;;;;;;;8.77;8.20;;;14.60;99.90;;;;;;5050783;28;20179;-74
2022/07/05 02:17:19;;;;;;;9.00;8.50;;;14.60;99.90;;;;;;5031943;28;20210;-75
2022/07/05 02:19:45;;;;;;;11.87;11.17;;;14.50;99.90;;;;;;5050751;28;20210;-74
2022/07/05 02:22:12;;;;;;;12.97;11.97;;;14.50;99.90;;;;;;5049355;28;20590;-74
2022/07/05 02:24:38;;;;;;;18.43;16.93;;;14.50;99.90;;;;;;5049512;28;20183;-74
2022/07/05 02:27:04;;;;;;;16.93;15.70;;;14.40;99.90;;;;;;5050102;28;20608;-74
2022/07/05 02:29:30;;;;;;;17.43;16.37;;;14.40;99.90;;;;;;5050632;28;20236;-74
2022/07/05 02:31:55;;;;;;;16.00;15.10;;;14.30;99.90;;;;;;5050794;28;20202;-74
2022/07/05 02:34:21;;;;;;;14.23;13.53;;;14.30;99.90;;;;;;5053831;28;20186;-74
2022/07/05 02:36:47;;;;;;;23.20;21.73;;;14.30;99.90;;;;;;5054170;28;20293;-74
2022/07/05 02:39:13;;;;;;;22.77;21.30;;;14.30;99.90;;;;;;5040973;28;20205;-75
2022/07/05 02:41:39;;;;;;;12.23;11.43;;;14.20;99.90;;;;;;5036862;28;20205;-74
2022/07/05 02:44:04;;;;;;;14.53;13.60;;;14.10;99.90;;;;;;5054633;28;20185;-74
2022/07/05 02:46:30;;;;;;;28.83;26.80;;;14.00;99.90;;;;;;5054605;28;20239;-74
2022/07/05 02:48:56;;;;;;;57.80;54.60;;;13.90;99.90;;;;;;5053670;28;20259;-74
2022/07/05 02:51:22;;;;;;;68.00;64.17;;;13.80;99.90;;;;;;5053844;28;20202;-74
2022/07/05 02:53:47;;;;;;;41.27;39.00;;;13.80;99.90;;;;;;5034418;28;20183;-74
2022/07/05 02:56:13;;;;;;;40.17;37.73;;;13.80;99.90;;;;;;5034485;28;20703;-74
2022/07/05 02:58:39;;;;;;;41.97;39.83;;;13.80;99.90;;;;;;5016010;28;20186;-74
2022/07/05 03:01:05;;;;;;;62.77;59.40;;;13.80;99.90;;;;;;5034236;28;20203;-76
2022/07/05 03:03:31;;;;;;;36.60;34.83;;;13.80;99.90;;;;;;5036188;28;20176;-76
2022/07/05 03:05:56;;;;;;;57.63;54.73;;;13.90;99.90;;;;;;5051425;28;20836;-74
2022/07/05 03:08:22;;;;;;;67.07;63.70;;;13.80;99.90;;;;;;5052536;28;20182;-74
2022/07/05 03:10:48;;;;;;;66.20;62.80;;;13.90;99.90;;;;;;5054870;28;20207;-74
2022/07/05 03:13:14;;;;;;;30.27;28.53;;;13.90;99.90;;;;;;5051567;28;20558;-75
2022/07/05 03:15:40;;;;;;;7.80;7.30;;;14.00;99.90;;;;;;5026653;28;20262;-74
2022/07/05 03:18:05;;;;;;;7.73;7.33;;;14.00;99.90;;;;;;5033065;28;20269;-74
2022/07/05 03:20:31;;;;;;;8.47;7.77;;;13.90;99.90;;;;;;5016356;28;20202;-74
2022/07/05 03:22:57;;;;;;;7.53;7.13;;;13.90;99.90;;;;;;5048214;28;20201;-74
2022/07/05 03:25:23;;;;;;;8.83;7.60;;;13.90;99.90;;;;;;5038238;28;20655;-74
2022/07/05 03:27:49;;;;;;;9.83;9.23;;;14.00;99.90;;;;;;5033074;28;20179;-75
2022/07/05 03:30:15;;;;;;;12.53;11.67;;;14.00;99.90;;;;;;5016207;28;20259;-75
2022/07/05 03:32:41;;;;;;;13.30;12.60;;;14.00;99.90;;;;;;5034365;28;20175;-74
2022/07/05 03:35:07;;;;;;;14.90;13.93;;;13.90;99.90;;;;;;5036092;28;20182;-75
2022/07/05 03:37:33;;;;;;;14.10;12.93;;;13.90;99.90;;;;;;5051517;28;20694;-74
2022/07/05 03:39:59;;;;;;;10.10;9.20;;;13.80;99.90;;;;;;5052564;28;20243;-74
2022/07/05 03:42:24;;;;;;;8.47;7.73;;;13.70;99.90;;;;;;5034218;28;20285;-74
2022/07/05 03:44:50;;;;;;;8.53;7.87;;;13.70;99.90;;;;;;5052166;28;20177;-75
2022/07/05 03:47:16;;;;;;;8.67;7.93;;;13.70;99.90;;;;;;5035088;28;20241;-74
2022/07/05 03:49:42;;;;;;;9.20;8.27;;;13.70;99.90;;;;;;5035891;28;20566;-78
2022/07/05 03:52:07;;;;;;;8.10;7.20;;;13.70;99.90;;;;;;5053307;28;20670;-75
2022/07/05 03:54:33;;;;;;;7.57;6.97;;;13.80;99.90;;;;;;5032602;28;20213;-76
2022/07/05 03:56:59;;;;;;;9.57;9.07;;;13.90;99.90;;;;;;5041928;28;20207;-74
2022/07/05 03:59:25;;;;;;;13.27;12.27;;;13.90;99.90;;;;;;5053656;28;20319;-74
2022/07/05 04:01:51;;;;;;;18.87;17.83;;;13.90;99.90;;;;;;5053393;28;20224;-75
2022/07/05 04:04:17;;;;;;;22.77;21.50;;;13.90;99.90;;;;;;5053407;28;20179;-75
2022/07/05 04:06:43;;;;;;;19.53;18.43;;;13.90;99.90;;;;;;5035346;28;20182;-74
2022/07/05 04:09:09;;;;;;;15.37;14.20;;;14.00;99.90;;;;;;5052688;28;20655;-75
2022/07/05 04:11:34;;;;;;;11.80;10.90;;;14.10;99.90;;;;;;5051790;28;20202;-75
2022/07/05 04:14:01;;;;;;;12.07;11.13;;;14.20;99.90;;;;;;5052850;28;20618;-75
2022/07/05 04:16:26;;;;;;;23.43;21.83;;;14.30;99.90;;;;;;5051905;28;20551;-76
2022/07/05 04:18:53;;;;;;;25.83;24.33;;;14.40;99.90;;;;;;5051142;28;20186;-75
2022/07/05 04:21:18;;;;;;;31.90;29.83;;;14.40;99.90;;;;;;5051269;28;20700;-75
2022/07/05 04:23:44;;;;;;;83.57;79.17;;;14.50;99.90;;;;;;5053626;28;20560;-76
2022/07/05 04:26:10;;;;;;;28.90;27.37;;;14.60;99.90;;;;;;5054203;28;20238;-76
2022/07/05 04:28:36;;;;;;;13.87;12.77;;;14.60;99.90;;;;;;5054627;28;20323;-77
2022/07/05 04:31:02;;;;;;;15.37;14.57;;;14.60;99.90;;;;;;5053861;28;20209;-77
2022/07/05 04:33:28;;;;;;;23.53;21.80;;;14.70;99.90;;;;;;5053087;28;20186;-77
2022/07/05 04:35:53;;;;;;;10.43;9.83;;;14.70;99.90;;;;;;5053282;28;20240;-76
2022/07/05 04:38:19;;;;;;;42.70;40.53;;;14.70;99.90;;;;;;5052581;28;20182;-76
2022/07/05 04:40:45;;;;;;;53.33;50.53;;;14.70;99.90;;;;;;5054399;28;20730;-77
2022/07/05 04:43:11;;;;;;;71.83;68.10;;;14.70;99.90;;;;;;5053618;28;20179;-77
2022/07/05 04:45:37;;;;;;;105.47;99.80;;;14.70;99.90;;;;;;5054438;28;20201;-76
2022/07/05 04:48:03;;;;;;;113.70;108.03;;;14.90;99.90;;;;;;5034862;28;20191;-76
2022/07/05 04:50:29;;;;;;;103.87;98.57;;;15.00;99.90;;;;;;5044773;28;20273;-76
2022/07/05 04:52:55;;;;;;;70.63;66.73;;;15.00;99.90;;;;;;5035023;28;20179;-76
2022/07/05 04:55:21;;;;;;;57.30;54.27;;;15.20;99.90;;;;;;5033819;28;20179;-77
2022/07/05 04:57:47;;;;;;;9.83;8.97;;;15.30;99.90;;;;;;5032982;28;20210;-77
2022/07/05 05:00:14;;;;;;;11.20;10.23;;;15.50;99.90;;;;;;5032247;28;20277;-76
2022/07/05 05:02:40;;;;;;;9.50;8.80;;;15.60;99.90;;;;;;5031241;28;20640;-76
2022/07/05 05:05:07;;;;;;;7.70;6.10;;;15.80;99.90;;;;;;5032123;28;20565;-76
2022/07/05 05:07:34;;;;;;;29.07;27.50;;;16.00;99.90;;;;;;5031097;28;20183;-76
2022/07/05 05:10:00;;;;;;;33.13;31.23;;;16.30;99.90;;;;;;5030046;28;20254;-76
2022/07/05 05:12:26;;;;;;;57.00;53.50;;;16.80;99.90;;;;;;5031564;28;20206;-76
2022/07/05 05:14:51;;;;;;;120.27;114.20;;;17.40;99.90;;;;;;5031797;28;20190;-75
2022/07/05 05:17:17;;;;;;;37.83;35.83;;;18.10;99.90;;;;;;5030054;28;20280;-76
2022/07/05 05:19:44;;;;;;;36.30;34.43;;;18.60;99.90;;;;;;5030409;28;20183;-75
2022/07/05 05:22:10;;;;;;;25.70;23.87;;;19.30;99.90;;;;;;5051932;23;20223;-79
2022/07/05 05:24:36;;;;;;;10.07;9.33;;;19.90;99.90;;;;;;5034742;28;20186;-79
2022/07/05 05:27:02;;;;;;;9.57;9.02;;;20.50;99.90;;;;;;5033512;28;20576;-79
2022/07/05 05:29:28;;;;;;;6.63;6.07;;;20.80;99.90;;;;;;5035524;28;20187;-80
2022/07/05 05:31:54;;;;;;;8.52;8.02;;;21.10;99.90;;;;;;5034632;28;20265;-80
2022/07/05 05:34:20;;;;;;;9.93;9.38;;;21.30;99.90;;;;;;5037471;28;20856;-79
2022/07/05 05:36:46;;;;;;;18.20;17.30;;;21.80;99.90;;;;;;5035421;28;20215;-80
2022/07/05 05:39:12;;;;;;;20.58;19.55;;;22.10;99.90;;;;;;5033464;28;20610;-79
2022/07/05 05:41:38;;;;;;;22.67;21.27;;;22.40;99.90;;;;;;5032882;28;20211;-79
2022/07/05 05:44:04;;;;;;;11.82;11.23;;;22.90;99.90;;;;;;5034686;28;20186;-79
2022/07/05 05:46:30;;;;;;;9.45;8.95;;;23.10;99.90;;;;;;5031691;28;20185;-80
2022/07/05 05:48:56;;;;;;;6.90;5.78;;;23.30;99.90;;;;;;5032819;28;20559;-77
2022/07/05 05:51:22;;;;;;;5.15;4.85;;;23.30;99.90;;;;;;5029583;28;20194;-76
2022/07/05 05:53:48;;;;;;;5.22;4.82;;;23.10;99.90;;;;;;5019736;28;20195;-77
2022/07/05 05:56:13;;;;;;;6.28;4.75;;;23.40;99.90;;;;;;5011414;28;20236;-74
2022/07/05 05:58:39;;;;;;;5.15;4.63;;;23.60;99.90;;;;;;5009453;28;20552;-77
2022/07/05 06:01:05;;;;;;;4.82;4.25;;;24.00;99.90;;;;;;5011239;28;20330;-76
2022/07/05 06:03:31;;;;;;;5.32;5.00;;;24.10;99.90;;;;;;5011191;28;20554;-74
2022/07/05 06:05:56;;;;;;;11.68;10.75;;;24.40;99.90;;;;;;5011402;28;20183;-74
2022/07/05 06:08:23;;;;;;;22.92;21.40;;;24.60;99.90;;;;;;5010229;28;20190;-76
2022/07/05 06:10:49;;;;;;;40.25;37.90;;;25.00;99.90;;;;;;5009931;28;20183;-74
2022/07/05 06:13:15;;;;;;;25.13;23.33;;;25.30;99.90;;;;;;5011139;28;20230;-74
2022/07/05 06:15:42;;;;;;;8.73;8.20;;;25.40;99.90;;;;;;5011202;28;20184;-74
2022/07/05 06:18:10;;;;;;;4.88;4.68;;;25.90;99.90;;;;;;5010371;28;20716;-74
2022/07/05 06:20:38;;;;;;;4.53;4.10;;;26.30;99.90;;;;;;5011105;28;20175;-74
2022/07/05 06:23:05;;;;;;;5.15;4.55;;;26.60;99.00;;;;;;5011366;28;20648;-74
2022/07/05 06:25:32;;;;;;;6.65;6.05;;;26.70;97.40;;;;;;5010126;28;20184;-74
2022/07/05 06:28:06;;;;;;;6.65;5.57;;;26.70;97.50;;;;;;5010661;28;20577;-74
2022/07/05 06:30:34;;;;;;;7.97;6.10;;;26.80;96.20;;;;;;5009658;28;20183;-74
2022/07/05 06:32:59;;;;;;;6.50;6.10;;;26.60;96.40;;;;;;5010124;28;20274;-73
2022/07/05 06:35:26;;;;;;;6.22;5.65;;;26.40;97.00;;;;;;5021865;28;20214;-75
2022/07/05 06:37:58;;;;;;;6.78;6.30;;;26.70;96.80;;;;;;5019103;28;20199;-75
2022/07/05 06:40:26;;;;;;;4.63;4.40;;;27.10;96.10;;;;;;5011594;28;20570;-76
2022/07/05 06:42:53;;;;;;;5.47;4.97;;;27.40;95.10;;;;;;5010873;28;20227;-74
2022/07/05 06:45:20;;;;;;;4.40;4.00;;;27.10;93.70;;;;;;5010136;28;20238;-74
2022/07/05 06:47:57;;;;;;;6.50;4.43;;;27.20;94.60;;;;;;5009054;28;20187;-74
2022/07/05 06:50:24;;;;;;;6.93;5.00;;;27.40;93.60;;;;;;5011572;28;20191;-74
2022/07/05 06:52:50;;;;;;;4.38;3.65;;;27.30;93.10;;;;;;5009479;28;20211;-74
2022/07/05 06:55:15;;;;;;;5.93;5.63;;;27.60;94.30;;;;;;5010926;28;20675;-74
2022/07/05 06:57:43;;;;;;;8.05;7.43;;;28.10;92.50;;;;;;5010016;28;20305;-75
2022/07/05 07:00:10;;;;;;;9.40;8.80;;;28.20;92.40;;;;;;5009797;28;21085;-74
2022/07/05 07:02:36;;;;;;;7.82;7.13;;;28.40;91.50;;;;;;5011114;28;20195;-75
2022/07/05 07:05:02;;;;;;;8.73;8.13;;;28.30;90.90;;;;;;5012139;28;20660;-75
2022/07/05 07:10:12;;;;;;;5.47;4.97;;;28.60;87.70;;;;;;5011033;28;20187;-75
2022/07/05 07:12:38;;;;;;;5.38;5.00;;;28.60;85.90;;;;;;5009472;28;20292;-76
2022/07/05 07:15:04;;;;;;;5.05;4.60;;;28.50;86.10;;;;;;5010763;28;20654;-75
2022/07/05 07:17:30;;;;;;;4.35;3.95;;;28.60;83.70;;;;;;5008668;28;20254;-76
2022/07/05 07:19:55;;;;;;;10.45;9.93;;;28.90;85.90;;;;;;5011429;28;20660;-75
2022/07/05 07:22:21;;;;;;;13.10;12.40;;;28.90;81.60;;;;;;5012975;28;20207;-75
2022/07/05 07:24:47;;;;;;;15.23;14.20;;;29.10;79.90;;;;;;5013182;28;20176;-76
2022/07/05 07:27:13;;;;;;;15.85;14.90;;;28.90;78.80;;;;;;5013504;28;20179;-75
2022/07/05 07:29:40;;;;;;;18.48;17.58;;;29.00;77.40;;;;;;5014113;28;20660;-76
2022/07/05 07:32:07;;;;;;;22.85;21.60;;;29.10;75.00;;;;;;5014015;28;20257;-76
2022/07/05 07:34:33;;;;;;;17.60;16.50;;;28.80;75.10;;;;;;5014172;28;20210;-76
2022/07/05 07:36:59;;;;;;;10.80;10.10;;;28.80;78.20;;;;;;5013373;28;20210;-75
2022/07/05 07:39:26;;;;;;;20.83;19.83;;;29.20;80.70;;;;;;5013863;28;20671;-76
2022/07/05 07:41:52;;;;;;;18.38;17.35;;;29.10;73.90;;;;;;5014091;28;20191;-76
2022/07/05 07:44:19;;;;;;;22.38;21.30;;;29.40;78.20;;;;;;5014080;28;20226;-75
2022/07/05 07:46:45;;;;;;;34.47;32.75;;;29.70;70.50;;;;;;5013531;28;20183;-75
2022/07/05 07:49:11;;;;;;;37.28;35.38;;;29.60;68.30;;;;;;5013786;28;20180;-76
2022/07/05 07:51:37;;;;;;;33.35;31.42;;;29.80;69.30;;;;;;5013652;28;20656;-74
2022/07/05 07:54:03;;;;;;;24.20;22.98;;;29.50;69.70;;;;;;5012622;28;20215;-74
2022/07/05 07:56:30;;;;;;;25.52;24.15;;;29.60;71.40;;;;;;5013792;28;20230;-75
2022/07/05 07:58:58;;;;;;;19.45;18.35;;;29.50;69.50;;;;;;5011660;28;20558;-75
2022/07/05 08:01:24;;;;;;;47.47;45.08;;;29.20;70.70;;;;;;5013543;28;20199;-74
2022/07/05 08:03:50;;;;;;;30.02;28.40;;;29.30;65.60;;;;;;5013590;28;20176;-75
2022/07/05 08:06:16;;;;;;;17.48;16.48;;;29.40;68.00;;;;;;5013540;28;20230;-75
2022/07/05 08:08:44;;;;;;;20.65;19.63;;;29.40;68.80;;;;;;5012765;28;20612;-74
2022/07/05 08:11:11;;;;;;;28.20;26.73;;;29.90;68.60;;;;;;5012420;28;20695;-75
2022/07/05 08:13:40;;;;;;;28.52;26.98;;;29.90;69.60;;;;;;5013451;28;20242;-74
2022/07/05 08:16:10;;;;;;;34.63;32.72;;;30.10;69.30;;;;;;5013377;28;20180;-75
2022/07/05 08:21:32;;;;;;;19.13;18.23;;;30.10;68.40;;;;;;5013725;28;20676;-75
2022/07/05 08:24:06;;;;;;;32.67;31.10;;;29.70;69.80;;;;;;5012040;28;20558;-74
2022/07/05 08:26:32;;;;;;;34.10;32.17;;;29.50;67.60;;;;;;5013152;28;20191;-74
2022/07/05 08:29:00;;;;;;;10.95;10.43;;;29.20;67.80;;;;;;5012235;28;20180;-75
2022/07/05 08:31:27;;;;;;;13.00;12.35;;;29.30;71.30;;;;;;5011588;28;20199;-74
2022/07/05 08:33:53;;;;;;;20.92;19.73;;;30.00;69.80;;;;;;5012939;28;20656;-75
2022/07/05 08:36:18;;;;;;;14.85;13.98;;;30.00;68.30;;;;;;5012229;28;20214;-75
2022/07/05 08:38:44;;;;;;;15.50;14.68;;;29.90;71.60;;;;;;5012321;28;20221;-74
2022/07/05 08:41:11;;;;;;;31.23;29.50;;;30.30;70.60;;;;;;5011605;28;20211;-76
2022/07/05 08:43:41;;;;;;;42.22;40.13;;;30.90;68.40;;;;;;5012702;28;20184;-73
2022/07/05 08:46:10;;;;;;;47.70;45.25;;;31.20;66.70;;;;;;5012773;28;20653;-74
2022/07/05 08:48:43;;;;;;;48.13;45.53;;;30.90;67.30;;;;;;5013430;28;20539;-75
2022/07/05 08:51:17;;;;;;;37.50;35.65;;;30.70;66.50;;;;;;5012064;28;20211;-74
2022/07/05 08:53:44;;;;;;;24.40;23.15;;;30.70;67.70;;;;;;5012729;28;20277;-75
2022/07/05 08:56:12;;;;;;;14.57;13.82;;;30.40;69.70;;;;;;5012590;28;20191;-74
2022/07/05 08:58:38;;;;;;;9.57;8.77;;;30.40;70.60;;;;;;5011826;28;20194;-75
2022/07/05 09:01:06;;;;;;;4.78;4.47;;;30.40;70.60;;;;;;5012456;28;20683;-75
2022/07/05 09:03:46;;;;;;;5.47;4.63;;;30.40;72.60;;;;;;5012437;28;20188;-76
2022/07/05 09:06:17;;;;;;;7.85;7.35;;;31.00;69.60;;;;;;5012484;28;20191;-75
2022/07/05 09:08:44;;;;;;;29.92;28.33;;;31.20;67.50;;;;;;5011627;28;20187;-75
2022/07/05 09:11:16;;;;;;;38.35;36.47;;;30.90;64.20;;;;;;5011117;28;20191;-74
2022/07/05 09:13:47;;;;;;;29.33;27.73;;;30.60;64.70;;;;;;5012286;28;20271;-75
2022/07/05 09:16:13;;;;;;;36.72;34.83;;;30.20;65.20;;;;;;5010992;28;20191;-75
2022/07/05 09:18:40;;;;;;;23.33;22.05;;;30.20;62.30;;;;;;5011455;28;20180;-74
2022/07/05 09:21:22;;;;;;;39.38;37.15;;;30.50;62.40;;;;;;5012157;28;20211;-75
2022/07/05 09:23:55;;;;;;;35.95;34.20;;;30.90;60.00;;;;;;5012197;28;20207;-75
2022/07/05 09:26:41;;;;;;;28.23;26.55;;;30.70;62.30;;;;;;5012031;28;20664;-75
2022/07/05 09:29:12;;;;;;;48.42;45.97;;;30.50;61.90;;;;;;4997188;28;20196;-74
2022/07/05 09:31:43;;;;;;;50.75;48.25;;;30.60;59.40;;;;;;5011943;28;20610;-75
2022/07/05 09:34:09;;;;;;;51.88;49.38;;;30.90;59.50;;;;;;5012025;28;20242;-75
2022/07/05 09:36:53;;;;;;;68.90;65.47;;;31.00;58.80;;;;;;5011969;28;20230;-74
2022/07/05 09:39:37;;;;;;;68.35;65.10;;;31.50;59.90;;;;;;5010619;28;20179;-75
2022/07/05 09:42:23;;;;;;;89.93;85.35;;;31.90;55.90;;;;;;5009881;28;20258;-72
2022/07/05 09:44:54;;;;;;;97.32;92.72;;;31.70;57.40;;;;;;5011891;28;20190;-75
2022/07/05 09:47:22;;;;;;;165.07;156.95;;;31.90;56.80;;;;;;5009722;28;20207;-75
2022/07/05 09:49:53;;;;;;;189.23;180.00;;;32.60;54.50;;;;;;5012005;28;20525;-74
2022/07/05 09:52:42;;;;;;;191.95;182.63;;;32.80;54.40;;;;;;5011617;28;20419;-75
2022/07/05 09:55:07;;;;;;;174.18;165.80;;;32.90;53.40;;;;;;5010494;28;20751;-75
2022/07/05 09:57:40;;;;;;;184.75;176.05;;;33.10;52.40;;;;;;5009528;28;20238;-74
2022/07/05 10:00:21;;;;;;;202.45;192.52;;;32.80;49.90;;;;;;5029703;28;20187;-74
2022/07/05 10:02:50;;;;;;;193.75;184.50;;;31.90;51.70;;;;;;5011794;28;20737;-73
2022/07/05 10:05:23;;;;;;;203.60;193.88;;;31.10;54.50;;;;;;5011620;28;20179;-75
2022/07/05 10:07:57;;;;;;;174.43;166.10;;;31.30;52.20;;;;;;5009526;28;20560;-74
2022/07/05 10:10:25;;;;;;;201.95;192.15;;;32.10;53.90;;;;;;5010271;28;20206;-74
2022/07/05 10:12:52;;;;;;;179.15;170.32;;;32.30;53.90;;;;;;5010198;28;20219;-74
2022/07/05 10:15:24;;;;;;;200.35;190.77;;;31.70;53.50;;;;;;5010299;28;20561;-75
2022/07/05 10:17:56;;;;;;;182.77;173.88;;;31.60;55.40;;;;;;5010404;28;20231;-75
2022/07/05 10:20:25;;;;;;;166.48;158.23;;;31.40;54.80;;;;;;5011246;28;20184;-75
2022/07/05 10:22:52;;;;;;;164.65;156.60;;;31.00;55.20;;;;;;5010199;28;20305;-74
2022/07/05 10:25:18;;;;;;;159.38;151.80;;;31.00;55.00;;;;;;5011605;28;20672;-74
2022/07/05 10:27:45;;;;;;;170.07;161.52;;;31.20;55.00;;;;;;5010583;28;20214;-74
2022/07/05 10:30:12;;;;;;;149.25;142.18;;;31.20;54.40;;;;;;5011145;28;20187;-76
2022/07/05 10:32:39;;;;;;;156.35;148.95;;;31.40;55.40;;;;;;5011123;28;20278;-75
2022/07/05 10:35:05;;;;;;;164.82;156.75;;;31.80;52.10;;;;;;5011145;28;20233;-74
2022/07/05 10:37:34;;;;;;;174.05;165.68;;;32.30;52.80;;;;;;5010209;28;20211;-75
2022/07/05 10:40:01;;;;;;;196.18;186.77;;;31.60;52.90;;;;;;5011154;28;20262;-76
2022/07/05 10:42:32;;;;;;;174.25;165.98;;;31.70;54.90;;;;;;5010873;28;20192;-75
2022/07/05 10:44:58;;;;;;;187.15;178.07;;;31.70;53.00;;;;;;5009991;28;20187;-75
2022/07/05 10:47:25;;;;;;;222.43;211.70;;;31.90;52.20;;;;;;5009082;28;20230;-76
2022/07/05 10:50:03;;;;;;;184.65;175.77;;;31.50;51.60;;;;;;5010930;28;20238;-76
2022/07/05 10:52:28;;;;;;;154.30;146.98;;;30.40;51.90;;;;;;5009795;28;20286;-75
2022/07/05 10:55:20;;;;;;;145.20;138.20;;;30.40;54.40;;;;;;5014606;28;20634;-74
2022/07/05 10:58:19;;;;;;;157.18;149.50;;;31.30;53.90;;;;;;5014034;28;20266;-76
2022/07/05 11:00:48;;;;;;;131.60;125.30;;;30.80;53.40;;;;;;5014795;28;20180;-76
2022/07/05 11:03:36;;;;;;;119.80;113.90;;;30.80;53.50;;;;;;5014807;28;20176;-76
2022/07/05 11:06:02;;;;;;;169.85;161.40;;;31.60;54.50;;;;;;5013601;28;20650;-76
2022/07/05 11:08:33;;;;;;;152.45;144.90;;;31.30;50.60;;;;;;5012504;28;20359;-74
2022/07/05 11:11:14;;;;;;;165.75;157.80;;;31.60;51.90;;;;;;5014415;28;20215;-75
2022/07/05 11:13:43;;;;;;;181.27;172.35;;;32.50;46.60;;;;;;5014487;28;20190;-75
2022/07/05 11:16:35;;;;;;;188.95;179.93;;;32.90;46.60;;;;;;5014435;28;20258;-76
2022/07/05 11:19:21;;;;;;;206.48;196.43;;;33.60;49.20;;;;;;5012442;28;20180;-76
2022/07/05 11:22:03;;;;;;;214.77;204.48;;;32.90;47.70;;;;;;5038486;23;20608;-77
2022/07/05 11:24:34;;;;;;;216.77;206.38;;;32.10;48.50;;;;;;5018360;28;20652;-76
2022/07/05 11:27:02;;;;;;;234.00;222.52;;;31.60;48.30;;;;;;5025256;28;20183;-77
2022/07/05 11:29:44;;;;;;;209.60;199.43;;;30.50;50.30;;;;;;5018682;28;20176;-76
2022/07/05 11:32:14;;;;;;;197.20;187.77;;;31.20;47.30;;;;;;5014600;28;20214;-76
2022/07/05 11:34:42;;;;;;;225.88;214.90;;;31.80;45.30;;;;;;5014323;28;20649;-76
2022/07/05 11:37:13;;;;;;;223.05;212.18;;;31.50;48.20;;;;;;5015363;28;20298;-78
2022/07/05 11:39:43;;;;;;;198.82;189.43;;;31.60;48.80;;;;;;5016471;28;20220;-77
2022/07/05 11:42:10;;;;;;;205.98;196.13;;;32.30;49.20;;;;;;5014421;28;20203;-78
2022/07/05 11:44:37;;;;;;;200.75;191.23;;;33.30;48.50;;;;;;5020509;28;20668;-77
2022/07/05 11:47:03;;;;;;;190.50;181.30;;;33.40;48.40;;;;;;5000254;28;20192;-77
2022/07/05 11:49:29;;;;;;;222.98;212.25;;;33.10;47.50;;;;;;5004523;28;20613;-77
2022/07/05 11:52:02;;;;;;;294.02;279.20;;;31.90;48.90;;;;;;5023389;28;20206;-79
2022/07/05 11:54:33;;;;;;;193.68;184.40;;;30.50;50.60;;;;;;5021754;28;20195;-79
2022/07/05 11:57:02;;;;;;;160.43;152.73;;;29.90;53.30;;;;;;5021654;28;20734;-77
2022/07/05 11:59:28;;;;;;;127.50;121.10;;;29.80;51.90;;;;;;5025432;28;20175;-77
2022/07/05 12:01:55;;;;;;;78.00;74.20;;;29.10;53.90;;;;;;5008808;28;20208;-77
2022/07/05 12:04:22;;;;;;;45.13;42.70;;;28.70;54.60;;;;;;5006241;28;20226;-77
2022/07/05 12:06:48;;;;;;;39.60;37.60;;;28.50;55.60;;;;;;5022333;28;20187;-76
2022/07/05 12:09:16;;;;;;;36.50;34.78;;;29.30;52.90;;;;;;5002196;28;20180;-80
2022/07/05 12:14:34;;;;;;;172.93;164.63;;;31.90;50.60;;;;;;5018561;28;20183;-77
2022/07/05 12:17:17;;;;;;;185.77;176.57;;;32.30;47.50;;;;;;5021086;28;20203;-77
2022/07/05 12:19:44;;;;;;;206.25;196.38;;;32.70;48.90;;;;;;5021887;28;20191;-78
2022/07/05 12:22:10;;;;;;;206.85;196.65;;;33.30;49.00;;;;;;5017433;28;20219;-76
2022/07/05 12:24:36;;;;;;;175.60;167.27;;;34.50;47.40;;;;;;5015227;28;20206;-79
2022/07/05 12:27:02;;;;;;;52.78;50.03;;;35.40;44.90;;;;;;5004783;28;20609;-77
2022/07/05 12:29:28;;;;;;;41.97;39.78;;;34.30;45.00;;;;;;5017985;28;20183;-79
2022/07/05 12:32:02;;;;;;;25.98;24.73;;;34.40;44.60;;;;;;5000747;28;20806;-79
2022/07/05 12:34:29;;;;;;;24.40;23.10;;;34.70;43.70;;;;;;5000226;28;20184;-77
2022/07/05 12:36:55;;;;;;;12.13;11.18;;;34.70;44.50;;;;;;5016522;28;20208;-77
2022/07/05 12:39:21;;;;;;;12.95;12.35;;;34.20;42.80;;;;;;5020102;28;20184;-78